BERRYESSA (BER)

Elevation: 456' · PUTAH CR basin · Operator: US Bureau of Reclamation

Provisional data, subject to change.
Query executed Monday at 19:17:50   clock

Select a sensor type for a plot of data.
Note: Reservoir Flows are daily averages.

Earlier

Date RES ELE    STORAGE    OUTFLOW    INFLOW    PPT INC   
 FEET   AF   CFS   CFS   INCHES  
01/10/2016 397.09 833795 130 426 0.03
01/11/2016 397.13 834372 123 419 0.00
01/12/2016 397.13 834372 107 112 0.00
01/13/2016 397.33 837262 95 1568 0.85
01/14/2016 397.37 837841 111 424 0.10
01/15/2016 397.57 840737 120 1585 0.16
01/16/2016 397.71 842767 106 1134 0.37
01/17/2016 398.09 848288 100 2894 0.06
01/18/2016 398.81 858799 95 5399 1.05
01/19/2016 399.48 868635 69 5039 0.60
01/20/2016 399.80 873352 61 2614 0.41
01/21/2016 399.94 875418 106 1175 0.00
01/22/2016 400.08 877488 115 1170 0.10
01/23/2016 400.39 882077 109 2423 0.34
01/24/2016 400.53 884153 100 1152 0.09
01/25/2016 400.64 885785 106 962 0.02
01/26/2016 400.69 886528 110 490 0.00
01/27/2016 400.77 887717 110 720 0.00
01/28/2016 400.82 888460 110 502 0.00
01/29/2016 400.91 889798 110 791 0.04
01/30/2016 400.97 890691 110 560 0.18
01/31/2016 401.04 891733 116 652 0.00
02/01/2016 -- -- -- -- --
02/02/2016 -- -- -- -- --
02/03/2016 -- -- -- -- --
02/04/2016 -- -- -- -- --
02/05/2016 -- -- -- -- --
02/06/2016 -- -- -- -- --
02/07/2016 -- -- -- -- --
02/08/2016 -- -- -- -- --

Later | Latest

Warning! This data is preliminary and subject to revision.

Show BER Map | Plot BER Data | 1 Month BER Data | Real-Time BER Data | BER Info